createdAt,value
2022-12-13T00:02:27.820Z,40.12
2022-12-13T00:05:00.279Z,39.13
2022-12-13T00:07:34.849Z,40.03
2022-12-13T00:10:08.105Z,40.70
2022-12-13T00:12:42.131Z,39.75
2022-12-13T00:15:14.675Z,37.90
2022-12-13T00:17:47.185Z,41.25
2022-12-13T00:20:20.060Z,38.80
2022-12-13T00:22:54.049Z,39.25
2022-12-13T00:25:26.490Z,35.60
2022-12-13T00:27:59.032Z,37.28
2022-12-13T00:30:34.742Z,38.45
2022-12-13T00:33:07.630Z,41.10
2022-12-13T00:35:43.575Z,40.98
2022-12-13T00:38:15.915Z,41.20
2022-12-13T00:40:48.752Z,37.45
2022-12-13T00:43:21.256Z,36.88
2022-12-13T00:45:53.793Z,38.28
2022-12-13T00:48:26.255Z,38.98
2022-12-13T00:50:58.849Z,39.55
2022-12-13T00:53:31.375Z,41.50
2022-12-13T00:56:04.681Z,40.58
2022-12-13T00:58:38.616Z,39.58
2022-12-13T01:01:15.783Z,37.30
2022-12-13T01:03:48.210Z,41.98
2022-12-13T01:06:24.385Z,38.98
2022-12-13T01:08:56.936Z,37.48
2022-12-13T01:11:30.108Z,36.58
2022-12-13T01:14:02.686Z,41.13
2022-12-13T01:16:35.249Z,40.33
2022-12-13T01:19:07.844Z,38.38
2022-12-13T01:21:40.348Z,38.92
2022-12-13T01:24:13.485Z,41.05
2022-12-13T01:26:45.967Z,38.38
2022-12-13T01:29:19.837Z,40.60
2022-12-13T01:31:53.023Z,40.55
2022-12-13T01:34:28.517Z,39.73
2022-12-13T01:37:00.896Z,40.33
2022-12-13T01:39:38.025Z,40.78
2022-12-13T01:42:07.675Z,40.23
2022-12-13T01:45:06.391Z,38.02
2022-12-13T01:47:48.752Z,39.08
2022-12-13T01:50:25.851Z,38.98
2022-12-13T01:53:00.243Z,37.48
2022-12-13T01:58:06.016Z,40.90
2022-12-13T02:00:40.860Z,40.58
2022-12-13T02:03:21.388Z,37.75
2022-12-13T02:06:00.541Z,37.23
2022-12-13T02:08:35.951Z,40.45
2022-12-13T02:11:08.073Z,40.70
2022-12-13T02:13:41.388Z,39.30
2022-12-13T02:16:37.694Z,40.08
2022-12-13T02:20:00.176Z,38.10
2022-12-13T02:22:52.764Z,39.27
2022-12-13T02:26:16.586Z,40.63
2022-12-13T02:29:13.156Z,36.93
2022-12-13T02:32:01.707Z,37.40
2022-12-13T02:35:00.957Z,38.73
2022-12-13T02:37:50.272Z,39.42
2022-12-13T02:40:31.605Z,37.88
2022-12-13T02:43:23.132Z,37.80
2022-12-13T02:46:00.889Z,37.67
2022-12-13T02:48:38.389Z,40.92
2022-12-13T02:51:12.188Z,40.95
2022-12-13T02:53:46.509Z,42.25
2022-12-13T02:56:18.973Z,38.95
2022-12-13T02:58:54.517Z,40.78
2022-12-13T03:02:09.734Z,38.38
2022-12-13T03:05:06.255Z,41.23
2022-12-13T03:08:05.008Z,42.33
2022-12-13T03:10:45.828Z,40.10
2022-12-13T03:13:38.213Z,43.83
2022-12-13T03:16:31.157Z,42.20
2022-12-13T03:19:05.847Z,39.53
2022-12-13T03:21:49.746Z,43.08
2022-12-13T03:24:22.793Z,39.13
2022-12-13T03:26:55.113Z,38.30
2022-12-13T03:29:27.475Z,39.33
2022-12-13T03:32:00.317Z,37.15
2022-12-13T03:34:43.742Z,44.73
2022-12-13T03:37:07.057Z,41.42
2022-12-13T03:39:39.790Z,43.28
2022-12-13T03:42:12.252Z,43.02
2022-12-13T03:44:45.193Z,44.25
2022-12-13T03:47:17.666Z,44.33
2022-12-13T03:49:54.121Z,43.80
2022-12-13T03:52:24.887Z,40.15
2022-12-13T03:54:57.701Z,45.45
2022-12-13T03:57:30.054Z,45.83
2022-12-13T04:00:04.553Z,48.45
2022-12-13T04:02:38.882Z,41.33
2022-12-13T04:05:11.487Z,46.53
2022-12-13T04:07:48.257Z,45.83
2022-12-13T04:10:26.296Z,52.60
2022-12-13T04:13:11.484Z,49.53
2022-12-13T04:15:49.227Z,52.05
2022-12-13T04:18:21.827Z,51.33
2022-12-13T04:20:54.437Z,45.55
2022-12-13T04:23:27.893Z,44.60
2022-12-13T04:26:01.087Z,47.65
2022-12-13T04:28:33.794Z,45.60
2022-12-13T04:31:06.552Z,43.52
2022-12-13T04:33:39.174Z,42.03
2022-12-13T04:36:14.644Z,43.80
2022-12-13T04:38:49.006Z,45.43
2022-12-13T04:41:22.036Z,41.65
2022-12-13T04:43:56.169Z,45.23
2022-12-13T04:46:28.841Z,47.70
2022-12-13T04:49:02.065Z,42.70
2022-12-13T04:51:35.025Z,45.43
2022-12-13T04:54:23.860Z,45.70
2022-12-13T04:56:42.792Z,43.90
2022-12-13T04:59:16.268Z,42.78
2022-12-13T05:01:49.082Z,47.40
2022-12-13T05:04:21.460Z,40.75
2022-12-13T05:06:54.094Z,43.40
2022-12-13T05:09:26.782Z,43.65
2022-12-13T05:12:01.533Z,38.90
2022-12-13T05:14:33.687Z,41.58
2022-12-13T05:17:07.189Z,45.23
2022-12-13T05:19:39.637Z,44.47
2022-12-13T05:22:20.847Z,46.73
2022-12-13T05:24:52.675Z,41.25
2022-12-13T05:27:26.882Z,43.80
2022-12-13T05:30:03.700Z,52.75
2022-12-13T05:32:44.005Z,46.42
2022-12-13T05:35:22.443Z,42.08
2022-12-13T05:37:53.333Z,42.95
2022-12-13T05:40:26.487Z,45.23
2022-12-13T05:43:01.658Z,43.60
2022-12-13T05:45:33.576Z,44.65
2022-12-13T05:48:06.505Z,43.20
2022-12-13T05:50:39.648Z,45.38
2022-12-13T05:53:12.626Z,45.15
2022-12-13T05:55:45.384Z,48.42
2022-12-13T05:58:23.261Z,46.58
2022-12-13T06:00:51.834Z,46.83
2022-12-13T06:03:24.442Z,47.30
2022-12-13T06:05:56.849Z,47.40
2022-12-13T06:08:30.222Z,46.28
2022-12-13T06:11:10.662Z,41.70
2022-12-13T06:13:42.318Z,53.28
2022-12-13T06:16:23.479Z,92.25
2022-12-13T06:18:47.802Z,54.77
2022-12-13T06:21:21.888Z,49.75
2022-12-13T06:23:54.412Z,55.85
2022-12-13T06:26:26.733Z,49.70
2022-12-13T06:28:59.584Z,50.58
2022-12-13T06:31:32.083Z,49.33
2022-12-13T06:34:13.776Z,50.12
2022-12-13T06:36:41.009Z,47.78
2022-12-13T06:39:15.169Z,53.20
2022-12-13T06:41:47.570Z,40.60
2022-12-13T06:44:20.020Z,52.98
2022-12-13T06:46:52.500Z,49.53
2022-12-13T06:49:26.861Z,47.60
2022-12-13T06:52:01.375Z,47.70
2022-12-13T06:54:34.128Z,54.88
2022-12-13T06:57:06.556Z,54.42
2022-12-13T06:59:40.070Z,50.30
2022-12-13T07:02:24.489Z,47.45
2022-12-13T07:04:47.028Z,53.28
2022-12-13T07:07:19.503Z,50.48
2022-12-13T07:09:51.986Z,49.08
2022-12-13T07:12:24.972Z,46.00
2022-12-13T07:14:57.698Z,42.65
2022-12-13T07:17:31.969Z,44.20
2022-12-13T07:20:09.361Z,49.35
2022-12-13T07:22:47.851Z,44.33
2022-12-13T07:25:27.926Z,44.85
2022-12-13T07:30:24.124Z,46.02
2022-12-13T07:32:56.619Z,42.20
2022-12-13T07:35:29.786Z,41.37
2022-12-13T07:38:02.331Z,39.60
2022-12-13T07:40:38.671Z,35.55
2022-12-13T07:43:13.144Z,39.67
2022-12-13T07:45:46.613Z,38.35
2022-12-13T07:48:20.286Z,34.63
2022-12-13T07:50:54.755Z,37.60
2022-12-13T07:53:27.081Z,34.83
2022-12-13T07:56:01.139Z,35.20
2022-12-13T07:58:36.799Z,36.63
2022-12-13T08:01:12.236Z,36.25
2022-12-13T08:03:44.672Z,34.05
2022-12-13T08:06:18.885Z,35.00
2022-12-13T08:08:51.961Z,36.95
2022-12-13T08:11:24.642Z,36.28
2022-12-13T08:13:57.848Z,37.33
2022-12-13T08:16:30.772Z,38.28
2022-12-13T08:19:04.534Z,38.38
2022-12-13T08:21:57.826Z,41.15
2022-12-13T08:24:15.867Z,37.53
2022-12-13T08:26:48.526Z,42.25
2022-12-13T08:29:22.819Z,43.65
2022-12-13T08:31:55.595Z,34.48
2022-12-13T08:37:04.233Z,39.63
2022-12-13T08:39:39.029Z,39.60
2022-12-13T08:42:19.845Z,40.85
2022-12-13T08:44:54.122Z,38.80
2022-12-13T08:47:27.852Z,37.30
2022-12-13T08:50:02.251Z,34.70
2022-12-13T08:52:39.801Z,36.55
2022-12-13T08:55:16.816Z,33.92
2022-12-13T08:57:50.192Z,29.23
2022-12-13T09:00:22.877Z,34.23
2022-12-13T09:03:16.923Z,34.03
2022-12-13T09:05:49.474Z,34.10
2022-12-13T09:08:24.320Z,32.55
2022-12-13T09:11:10.486Z,32.93
2022-12-13T09:13:43.190Z,35.95
2022-12-13T09:16:23.383Z,34.43
2022-12-13T09:18:56.495Z,32.17
2022-12-13T09:21:31.697Z,29.12
2022-12-13T09:24:04.515Z,35.23
2022-12-13T09:26:38.797Z,31.25
2022-12-13T09:29:11.968Z,27.73
2022-12-13T09:31:49.632Z,35.60
2022-12-13T09:34:19.327Z,29.55
2022-12-13T09:36:51.787Z,27.30
2022-12-13T09:39:26.052Z,27.02
2022-12-13T09:42:00.910Z,31.87
2022-12-13T09:44:44.042Z,33.20
2022-12-13T09:47:23.174Z,30.35
2022-12-13T09:49:53.614Z,34.50
2022-12-13T09:52:26.371Z,31.80
2022-12-13T09:55:00.645Z,28.25
2022-12-13T09:57:34.441Z,26.50
2022-12-13T10:00:11.765Z,26.27
2022-12-13T10:02:57.467Z,28.85
2022-12-13T10:05:39.456Z,25.52
2022-12-13T10:08:16.950Z,23.67
2022-12-13T10:10:50.872Z,22.15
2022-12-13T10:14:10.602Z,23.52
2022-12-13T10:16:50.219Z,25.23
2022-12-13T10:19:41.202Z,24.30
2022-12-13T10:22:16.546Z,22.62
2022-12-13T10:24:59.808Z,23.42
2022-12-13T10:27:41.932Z,22.42
2022-12-13T10:30:28.712Z,24.32
2022-12-13T10:33:07.406Z,21.35
2022-12-13T10:35:51.685Z,23.27
2022-12-13T10:38:31.901Z,23.25
2022-12-13T10:41:04.699Z,26.20
2022-12-13T10:43:38.351Z,23.37
2022-12-13T10:46:14.700Z,26.42
2022-12-13T10:48:52.337Z,26.17
2022-12-13T10:51:25.020Z,26.40
2022-12-13T10:53:59.564Z,25.52
2022-12-13T10:56:53.650Z,25.60
2022-12-13T10:59:37.837Z,26.97
2022-12-13T11:02:33.333Z,27.85
2022-12-13T11:05:29.827Z,28.77
2022-12-13T11:08:26.632Z,26.73
2022-12-13T11:11:04.703Z,28.12
2022-12-13T11:13:46.642Z,28.50
2022-12-13T11:16:29.205Z,31.20
2022-12-13T11:19:12.107Z,30.60
2022-12-13T11:21:49.234Z,43.75
2022-12-13T11:24:50.433Z,31.55
2022-12-13T11:27:48.656Z,30.35
2022-12-13T11:30:40.670Z,31.97
2022-12-13T11:33:33.002Z,28.40
2022-12-13T11:36:25.399Z,28.38
2022-12-13T11:39:08.711Z,28.87
2022-12-13T11:41:53.361Z,27.22
2022-12-13T11:44:30.768Z,26.10
2022-12-13T11:47:03.857Z,28.15
2022-12-13T11:49:42.464Z,26.50
2022-12-13T11:52:30.209Z,27.87
2022-12-13T11:55:31.348Z,27.13
2022-12-13T11:58:32.600Z,25.23
2022-12-13T12:01:00.101Z,25.02
2022-12-13T12:03:50.139Z,30.00
2022-12-13T12:06:30.776Z,25.82
2022-12-13T12:09:07.352Z,25.17
2022-12-13T12:12:02.604Z,23.65
2022-12-13T12:14:58.157Z,26.70
2022-12-13T12:17:37.852Z,26.87
2022-12-13T12:20:10.069Z,28.55
2022-12-13T12:22:58.480Z,25.65
2022-12-13T12:26:08.041Z,27.05
2022-12-13T12:28:57.344Z,26.75
2022-12-13T12:31:51.048Z,26.70
2022-12-13T12:34:45.529Z,24.98
2022-12-13T12:37:53.707Z,25.10
2022-12-13T12:41:18.053Z,25.90
2022-12-13T12:43:45.148Z,26.12
2022-12-13T12:47:18.050Z,28.02
2022-12-13T12:49:40.353Z,27.90
2022-12-13T12:52:35.433Z,29.23
2022-12-13T12:55:18.451Z,27.22
2022-12-13T12:58:01.519Z,24.12
2022-12-13T13:01:03.136Z,26.95
2022-12-13T13:03:37.977Z,27.37
2022-12-13T13:06:24.619Z,32.80
2022-12-13T13:09:07.637Z,48.83
2022-12-13T13:11:43.260Z,37.42
2022-12-13T13:14:33.919Z,28.02
2022-12-13T13:17:29.154Z,28.10
2022-12-13T13:20:24.367Z,25.32
2022-12-13T13:23:38.975Z,26.48
2022-12-13T13:25:43.956Z,24.35
2022-12-13T13:28:20.242Z,54.63
2022-12-13T13:31:10.174Z,37.80
2022-12-13T13:33:48.625Z,28.73
2022-12-13T13:36:46.761Z,26.25
2022-12-13T13:39:30.769Z,26.90
2022-12-13T13:42:19.232Z,25.45
2022-12-13T13:45:13.275Z,26.15
2022-12-13T13:47:45.619Z,28.15
2022-12-13T13:50:31.656Z,24.77
2022-12-13T13:53:50.180Z,27.02
2022-12-13T13:56:50.046Z,29.52
2022-12-13T13:59:51.645Z,27.58
2022-12-13T14:02:52.043Z,26.07
2022-12-13T14:06:00.207Z,27.65
2022-12-13T14:08:49.960Z,32.33
2022-12-13T14:12:06.186Z,26.30
2022-12-13T14:15:01.898Z,26.85
2022-12-13T14:18:21.493Z,28.23
2022-12-13T14:21:25.697Z,29.87
2022-12-13T14:24:17.597Z,30.48
2022-12-13T14:27:15.498Z,30.57
2022-12-13T14:29:58.705Z,24.55
2022-12-13T14:32:28.806Z,27.85
2022-12-13T14:35:26.260Z,27.55
2022-12-13T14:37:37.968Z,28.20
2022-12-13T14:40:27.235Z,24.32
2022-12-13T14:42:59.664Z,22.15
2022-12-13T14:45:36.751Z,26.75
2022-12-13T14:48:31.712Z,24.40
2022-12-13T14:51:04.941Z,23.32
2022-12-13T14:53:41.758Z,23.13
2022-12-13T14:56:27.637Z,24.43
2022-12-13T14:59:00.068Z,23.80
2022-12-13T15:01:36.656Z,23.38
2022-12-13T15:04:29.628Z,21.60
2022-12-13T15:07:16.103Z,24.85
2022-12-13T15:09:48.553Z,23.83
2022-12-13T15:12:24.540Z,20.95
2022-12-13T15:15:03.548Z,24.18
2022-12-13T15:17:40.866Z,22.35
2022-12-13T15:20:30.862Z,21.87
2022-12-13T15:23:15.835Z,23.77
2022-12-13T15:25:55.175Z,23.87
2022-12-13T15:28:30.579Z,25.15
2022-12-13T15:31:02.936Z,27.32
2022-12-13T15:33:42.546Z,26.42
2022-12-13T15:36:27.259Z,26.12
2022-12-13T15:39:03.043Z,26.77
2022-12-13T15:41:38.053Z,26.23
2022-12-13T15:44:40.278Z,27.48
2022-12-13T15:47:28.513Z,28.12
2022-12-13T15:49:59.370Z,26.23
2022-12-13T15:52:39.766Z,27.00
2022-12-13T15:55:19.479Z,27.45
2022-12-13T15:57:58.794Z,26.15
2022-12-13T16:00:34.540Z,26.62
2022-12-13T16:03:19.315Z,27.52
2022-12-13T16:08:40.744Z,26.55
2022-12-13T16:11:13.049Z,25.75
2022-12-13T16:13:47.539Z,22.05
2022-12-13T16:19:03.017Z,22.15
2022-12-13T16:21:37.184Z,19.65
2022-12-13T16:24:09.887Z,20.40
2022-12-13T16:26:47.296Z,22.70
2022-12-13T16:29:20.067Z,21.52
2022-12-13T16:31:54.891Z,19.60
2022-12-13T16:34:26.707Z,16.87
2022-12-13T16:37:00.719Z,18.75
2022-12-13T16:39:33.232Z,19.92
2022-12-13T16:42:06.199Z,18.32
2022-12-13T16:44:39.538Z,19.48
2022-12-13T16:47:24.399Z,17.05
2022-12-13T16:49:51.159Z,16.75
2022-12-13T16:52:23.586Z,17.23
2022-12-13T16:54:57.590Z,17.70
2022-12-13T16:57:30.005Z,17.55
2022-12-13T17:00:02.299Z,19.20
2022-12-13T17:02:34.909Z,17.12
2022-12-13T17:05:08.070Z,17.05
2022-12-13T17:07:40.430Z,20.05
2022-12-13T17:10:13.820Z,23.47
2022-12-13T17:12:47.920Z,21.17
2022-12-13T17:15:20.545Z,16.40
2022-12-13T17:17:55.377Z,18.90
2022-12-13T17:20:28.049Z,17.87
2022-12-13T17:23:01.652Z,16.87
2022-12-13T17:25:36.072Z,16.65
2022-12-13T17:30:41.314Z,15.80
2022-12-13T17:33:14.493Z,16.05
2022-12-13T17:36:05.292Z,17.27
2022-12-13T17:39:01.520Z,17.42
2022-12-13T17:41:34.010Z,15.43
2022-12-13T17:44:07.048Z,17.77
2022-12-13T17:46:39.860Z,14.23
2022-12-13T17:49:13.082Z,22.93
2022-12-13T17:51:51.442Z,26.82
2022-12-13T17:54:20.055Z,19.77
2022-12-13T17:56:54.569Z,17.85
2022-12-13T17:59:28.132Z,15.88
2022-12-13T18:02:00.612Z,14.40
2022-12-13T18:04:33.002Z,12.47
2022-12-13T18:07:06.340Z,14.15
2022-12-13T18:09:39.144Z,11.80
2022-12-13T18:12:12.582Z,12.85
2022-12-13T18:14:45.138Z,9.48
2022-12-13T18:17:19.366Z,11.97
2022-12-13T18:19:52.291Z,10.38
2022-12-13T18:22:25.673Z,11.90
2022-12-13T18:24:58.324Z,9.20
2022-12-13T18:27:32.362Z,9.38
2022-12-13T18:30:05.068Z,8.40
2022-12-13T18:32:37.737Z,8.08
2022-12-13T18:35:10.340Z,8.58
2022-12-13T18:37:42.810Z,9.63
2022-12-13T18:40:15.282Z,7.80
2022-12-13T18:42:49.301Z,7.55
2022-12-13T18:45:21.682Z,7.87
2022-12-13T18:47:53.998Z,6.97
2022-12-13T18:50:26.463Z,7.53
2022-12-13T18:52:58.933Z,7.95
2022-12-13T18:55:31.748Z,6.97
2022-12-13T19:00:37.656Z,6.95
2022-12-13T19:03:09.962Z,8.03
2022-12-13T19:05:43.031Z,12.20
2022-12-13T19:08:16.396Z,9.80
2022-12-13T19:10:49.847Z,7.22
2022-12-13T19:13:25.275Z,6.10
2022-12-13T19:15:59.548Z,5.22
2022-12-13T19:18:32.286Z,6.25
2022-12-13T19:21:08.502Z,5.12
2022-12-13T19:23:41.408Z,6.67
2022-12-13T19:26:15.452Z,5.67
2022-12-13T19:28:47.877Z,5.92
2022-12-13T19:31:23.058Z,7.37
2022-12-13T19:36:26.297Z,6.33
2022-12-13T19:38:58.768Z,7.37
2022-12-13T19:41:32.454Z,7.55
2022-12-13T19:44:06.536Z,7.22
2022-12-13T19:46:40.097Z,5.80
2022-12-13T19:49:13.088Z,7.92
2022-12-13T19:51:46.766Z,6.85
2022-12-13T19:54:19.308Z,6.60
2022-12-13T19:56:53.365Z,6.15
2022-12-13T19:59:26.163Z,5.97
2022-12-13T20:01:59.023Z,6.00
2022-12-13T20:04:31.580Z,6.90
2022-12-13T20:07:06.495Z,6.05
2022-12-13T20:12:15.727Z,7.22
2022-12-13T20:14:51.082Z,6.53
2022-12-13T20:17:24.598Z,8.48
2022-12-13T20:19:59.449Z,9.98
2022-12-13T20:22:33.873Z,9.00
2022-12-13T20:25:07.251Z,9.20
2022-12-13T20:27:41.880Z,9.65
2022-12-13T20:30:15.212Z,10.38
2022-12-13T20:32:47.546Z,8.98
2022-12-13T20:35:19.998Z,13.03
2022-12-13T20:37:52.723Z,12.43
2022-12-13T20:40:26.429Z,9.58
2022-12-13T20:45:31.557Z,11.55
2022-12-13T20:48:05.358Z,14.90
2022-12-13T20:50:39.450Z,12.90
2022-12-13T20:53:12.047Z,12.00
2022-12-13T20:55:44.503Z,10.75
2022-12-13T20:58:18.840Z,13.25
2022-12-13T21:00:51.351Z,13.50
2022-12-13T21:03:25.381Z,13.13
2022-12-13T21:05:58.197Z,13.48
2022-12-13T21:08:49.016Z,11.85
2022-12-13T21:11:33.970Z,12.37
2022-12-13T21:14:23.314Z,13.15
2022-12-13T21:17:04.636Z,11.25
2022-12-13T21:19:40.454Z,10.85
2022-12-13T21:22:12.886Z,14.13
2022-12-13T21:24:47.087Z,12.03
2022-12-13T21:27:19.948Z,12.50
2022-12-13T21:29:52.466Z,12.75
2022-12-13T21:32:25.109Z,12.03
2022-12-13T21:34:57.801Z,11.97
2022-12-13T21:37:30.770Z,12.65
2022-12-13T21:40:03.410Z,11.93
2022-12-13T21:42:35.931Z,12.25
2022-12-13T21:45:09.278Z,12.47
2022-12-13T21:47:42.142Z,11.35
2022-12-13T21:50:14.993Z,11.68
2022-12-13T21:52:49.740Z,13.22
2022-12-13T21:55:38.836Z,12.05
2022-12-13T21:58:14.985Z,13.20
2022-12-13T22:00:48.817Z,14.18
2022-12-13T22:03:21.587Z,13.08
2022-12-13T22:05:54.068Z,14.35
2022-12-13T22:08:27.358Z,16.48
2022-12-13T22:11:21.285Z,14.55
2022-12-13T22:13:51.770Z,15.50
2022-12-13T22:16:24.849Z,16.10
2022-12-13T22:18:58.844Z,15.25
2022-12-13T22:21:31.795Z,15.03
2022-12-13T22:24:04.819Z,15.00
2022-12-13T22:26:39.121Z,17.25
2022-12-13T22:29:13.459Z,15.40
2022-12-13T22:31:48.813Z,15.55
2022-12-13T22:36:51.790Z,14.85
2022-12-13T22:39:24.909Z,15.78
2022-12-13T22:41:57.243Z,12.50
2022-12-13T22:44:31.390Z,13.90
2022-12-13T22:47:05.261Z,14.53
2022-12-13T22:49:38.083Z,12.40
2022-12-13T22:52:10.380Z,18.12
2022-12-13T22:54:43.172Z,15.88
2022-12-13T22:57:15.461Z,14.65
2022-12-13T22:59:48.022Z,18.12
2022-12-13T23:02:21.229Z,14.50
2022-12-13T23:04:54.214Z,19.02
2022-12-13T23:07:26.999Z,18.62
2022-12-13T23:09:59.548Z,15.18
2022-12-13T23:12:49.990Z,17.07
2022-12-13T23:15:22.378Z,17.70
2022-12-13T23:17:54.851Z,16.65
2022-12-13T23:20:28.181Z,16.50
2022-12-13T23:23:00.611Z,15.58
2022-12-13T23:25:33.266Z,16.70
2022-12-13T23:28:05.610Z,15.20
2022-12-13T23:30:38.429Z,16.87
2022-12-13T23:33:11.029Z,14.35
2022-12-13T23:35:43.428Z,14.53
2022-12-13T23:38:15.927Z,16.20
2022-12-13T23:40:48.393Z,17.02
2022-12-13T23:43:20.872Z,14.60
2022-12-13T23:45:53.655Z,15.43
2022-12-13T23:48:27.159Z,14.20
2022-12-13T23:50:59.999Z,15.55
2022-12-13T23:53:32.927Z,17.92
2022-12-13T23:56:08.446Z,17.52
2022-12-13T23:58:41.877Z,14.50
